Time;durP1;ratioP1;P1;durP2;ratioP2;P2;SDS_P1;SDS_P2;PMS_P1;PMS_P2;Temp;Humidity;BMP_temperature;BMP_pressure;BME280_temperature;BME280_humidity;BME280_pressure;Samples;Min_cycle;Max_cycle;Signal;HPM_P1;HPM_P2
2022/09/25 00:00:35;;;;;;;;;;;7.60;99.90;;;;;;5072660;28;20014;-88
2022/09/25 00:03:00;;;;;;;;;;;7.60;99.90;;;;;;5072918;28;20352;-88
2022/09/25 00:05:26;;;;;;;;;;;7.50;99.90;;;;;;5073246;28;19917;-87
2022/09/25 00:07:51;;;;;;;;;;;7.50;99.90;;;;;;5073104;28;20324;-89
2022/09/25 00:10:17;;;;;;;;;;;7.40;99.90;;;;;;5072833;28;20427;-88
2022/09/25 00:12:43;;;;;;;;;;;7.40;99.90;;;;;;5072775;28;19909;-88
2022/09/25 00:15:09;;;;;;;;;;;7.30;99.90;;;;;;5072784;28;20010;-88
2022/09/25 00:17:34;;;;;;;;;;;7.30;99.90;;;;;;5072595;28;20286;-87
2022/09/25 00:20:00;;;;;;;;;;;7.30;99.90;;;;;;5072898;28;19913;-88
2022/09/25 00:22:29;;;;;;;;;;;7.20;99.90;;;;;;5072852;28;20373;-88
2022/09/25 00:24:54;;;;;;;;;;;7.20;99.90;;;;;;5072755;28;20003;-89
2022/09/25 00:27:20;;;;;;;;;;;7.20;99.90;;;;;;5073090;28;20393;-88
2022/09/25 00:29:46;;;;;;;;;;;7.20;99.90;;;;;;5073388;28;19935;-87
2022/09/25 00:32:12;;;;;;;;;;;7.10;99.90;;;;;;5073679;28;20019;-88
2022/09/25 00:34:38;;;;;;;;;;;7.10;99.90;;;;;;5074882;28;19935;-88
2022/09/25 00:37:04;;;;;;;;;;;7.00;99.90;;;;;;5076956;28;19982;-89
2022/09/25 00:39:30;;;;;;;;;;;7.10;99.90;;;;;;5078579;28;19912;-88
2022/09/25 00:41:56;;;;;;;;;;;7.00;99.90;;;;;;5082245;28;19912;-89
2022/09/25 00:44:45;;;;;;;;;;;7.00;99.90;;;;;;5094518;28;19915;-87
2022/09/25 00:47:12;;;;;;;;;;;7.00;99.90;;;;;;5095408;28;19975;-87
2022/09/25 00:49:37;;;;;;;;;;;7.00;99.90;;;;;;5088143;28;19912;-89
2022/09/25 00:52:05;;;;;;;;;;;7.00;99.90;;;;;;5077560;28;19916;-88
2022/09/25 00:54:33;;;;;;;;;;;7.00;99.90;;;;;;5076140;28;19954;-88
2022/09/25 00:57:01;;;;;;;;;;;7.00;99.90;;;;;;5075987;28;19909;-88
2022/09/25 00:59:32;;;;;;;;;;;6.90;99.90;;;;;;5075456;28;19938;-89
2022/09/25 01:01:58;;;;;;;;;;;6.90;99.90;;;;;;5074220;28;19913;-88
2022/09/25 01:04:25;;;;;;;;;;;6.90;99.90;;;;;;5076760;28;19939;-88
2022/09/25 01:06:51;;;;;;;;;;;6.90;99.90;;;;;;5077807;28;19948;-88
2022/09/25 01:09:17;;;;;;;;;;;6.90;99.90;;;;;;5077936;28;20275;-88
2022/09/25 01:11:44;;;;;;;;;;;6.90;99.90;;;;;;5077324;28;19917;-88
2022/09/25 01:14:10;;;;;;;;;;;6.90;99.90;;;;;;5077234;28;20322;-89
2022/09/25 01:16:41;;;;;;;;;;;6.90;99.90;;;;;;5077418;28;19912;-89
2022/09/25 01:19:26;;;;;;;;;;;6.80;99.90;;;;;;5077324;28;19919;-88
2022/09/25 01:22:10;;;;;;;;;;;6.80;99.90;;;;;;5077318;28;19909;-89
2022/09/25 01:24:47;;;;;;;;;;;6.80;99.90;;;;;;5078161;28;19913;-88
2022/09/25 01:27:27;;;;;;;;;;;6.80;99.90;;;;;;5076959;28;19916;-88
2022/09/25 01:30:00;;;;;;;;;;;6.70;99.90;;;;;;5076985;28;19915;-88
2022/09/25 01:32:26;;;;;;;;;;;6.70;99.90;;;;;;5075972;28;19974;-91
2022/09/25 01:35:07;;;;;;;;;;;6.60;99.90;;;;;;5076869;28;20003;-88
2022/09/25 01:37:51;;;;;;;;;;;6.50;99.90;;;;;;5075799;28;19909;-88
2022/09/25 01:40:26;;;;;;;;;;;6.40;99.90;;;;;;5076120;28;19958;-88
2022/09/25 01:43:07;;;;;;;;;;;6.40;99.90;;;;;;5075369;28;19915;-88
2022/09/25 01:45:45;;;;;;;;;;;6.30;99.90;;;;;;5075800;28;19908;-87
2022/09/25 01:48:12;;;;;;;;;;;6.30;99.90;;;;;;5075584;28;20003;-89
2022/09/25 01:50:45;;;;;;;;;;;6.30;99.90;;;;;;5075781;28;19921;-89
2022/09/25 01:53:13;;;;;;;;;;;6.30;99.90;;;;;;5075088;28;19924;-88
2022/09/25 01:55:40;;;;;;;;;;;6.30;99.90;;;;;;5075472;28;19913;-90
2022/09/25 01:58:15;;;;;;;;;;;6.30;99.90;;;;;;5075580;28;19927;-89
2022/09/25 02:00:42;;;;;;;;;;;6.20;99.90;;;;;;5076506;28;19931;-89
2022/09/25 02:03:34;;;;;;;;;;;6.20;99.90;;;;;;5076385;28;20362;-89
2022/09/25 02:06:01;;;;;;;;;;;6.20;99.90;;;;;;5073640;28;19916;-90
2022/09/25 02:08:35;;;;;;;;;;;6.20;99.90;;;;;;5076600;28;20011;-89
2022/09/25 02:11:03;;;;;;;;;;;6.10;99.90;;;;;;5077548;28;19917;-90
2022/09/25 02:13:33;;;;;;;;;;;6.10;99.90;;;;;;5076794;28;19912;-89
2022/09/25 02:16:02;;;;;;;;;;;6.10;99.90;;;;;;5074472;28;19914;-90
2022/09/25 02:21:24;;;;;;;;;;;6.00;99.90;;;;;;5076881;28;19934;-89
2022/09/25 02:23:52;;;;;;;;;;;6.00;99.90;;;;;;5075401;28;19958;-91
2022/09/25 02:26:30;;;;;;;;;;;6.00;99.90;;;;;;5074962;28;19912;-89
2022/09/25 02:28:57;;;;;;;;;;;5.90;99.90;;;;;;5075760;28;19916;-89
2022/09/25 02:31:29;;;;;;;;;;;5.90;99.90;;;;;;5076624;28;19924;-89
2022/09/25 02:33:55;;;;;;;;;;;5.90;99.90;;;;;;5075488;28;19966;-89
2022/09/25 02:36:23;;;;;;;;;;;5.80;99.90;;;;;;5080970;28;20320;-90
2022/09/25 02:38:49;;;;;;;;;;;5.80;99.90;;;;;;5083375;28;19908;-90
2022/09/25 02:41:24;;;;;;;;;;;5.80;99.90;;;;;;5083985;28;19920;-89
2022/09/25 02:44:00;;;;;;;;;;;5.70;99.90;;;;;;5080597;28;20285;-90
2022/09/25 02:46:38;;;;;;;;;;;5.70;99.90;;;;;;5080609;28;19912;-89
2022/09/25 02:49:09;;;;;;;;;;;5.70;99.90;;;;;;5077679;28;19936;-89
2022/09/25 02:51:40;;;;;;;;;;;5.70;99.90;;;;;;5076005;28;19943;-90
2022/09/25 02:54:20;;;;;;;;;;;5.70;99.90;;;;;;5074335;28;19931;-90
2022/09/25 02:56:54;;;;;;;;;;;5.70;99.90;;;;;;5075987;28;19916;-90
2022/09/25 02:59:22;;;;;;;;;;;5.70;99.90;;;;;;5074515;28;19963;-89
2022/09/25 03:01:48;;;;;;;;;;;5.80;99.90;;;;;;5074732;28;19913;-89
2022/09/25 03:04:14;;;;;;;;;;;5.70;99.90;;;;;;5074490;28;20259;-89
2022/09/25 03:06:40;;;;;;;;;;;5.70;99.90;;;;;;5075353;28;19959;-89
2022/09/25 03:09:07;;;;;;;;;;;5.70;99.90;;;;;;5075789;28;19913;-89
2022/09/25 03:11:35;;;;;;;;;;;5.60;99.90;;;;;;5075485;28;19943;-89
2022/09/25 03:14:02;;;;;;;;;;;5.70;99.90;;;;;;5075543;28;19909;-89
2022/09/25 03:16:33;;;;;;;;;;;5.70;99.90;;;;;;5075234;28;20345;-89
2022/09/25 03:18:59;;;;;;;;;;;5.80;99.90;;;;;;5074275;28;20007;-89
2022/09/25 03:21:24;;;;;;;;;;;5.90;99.90;;;;;;5074513;28;19909;-88
2022/09/25 03:23:50;;;;;;;;;;;5.90;99.90;;;;;;5074375;28;19916;-89
2022/09/25 03:26:15;;;;;;;;;;;5.90;99.90;;;;;;5075879;28;19923;-87
2022/09/25 03:28:41;;;;;;;;;;;5.90;99.90;;;;;;5075721;28;19909;-87
2022/09/25 03:31:09;;;;;;;;;;;5.90;99.90;;;;;;5075167;28;19962;-88
2022/09/25 03:33:36;;;;;;;;;;;5.90;99.90;;;;;;5077432;28;19913;-88
2022/09/25 03:36:10;;;;;;;;;;;5.90;99.90;;;;;;5077469;28;19916;-88
2022/09/25 03:38:36;;;;;;;;;;;5.90;99.90;;;;;;5077247;28;19919;-89
2022/09/25 03:41:03;;;;;;;;;;;6.00;99.90;;;;;;5098142;28;19948;-89
2022/09/25 03:43:32;;;;;;;;;;;6.00;99.90;;;;;;5098148;28;19916;-90
2022/09/25 03:45:58;;;;;;;;;;;6.00;99.90;;;;;;5096864;28;19900;-90
2022/09/25 03:48:23;;;;;;;;;;;6.10;99.90;;;;;;5081734;28;19939;-90
2022/09/25 03:50:49;;;;;;;;;;;6.10;99.90;;;;;;5079292;28;19920;-88
2022/09/25 03:53:15;;;;;;;;;;;6.20;99.90;;;;;;5077671;28;19920;-89
2022/09/25 03:55:40;;;;;;;;;;;6.20;99.90;;;;;;5077295;28;20294;-90
2022/09/25 03:58:06;;;;;;;;;;;6.20;99.90;;;;;;5075511;28;19955;-89
2022/09/25 04:00:31;;;;;;;;;;;6.20;99.90;;;;;;5074673;28;19917;-88
2022/09/25 04:02:58;;;;;;;;;;;6.10;99.90;;;;;;5075648;28;19963;-88
2022/09/25 04:05:23;;;;;;;;;;;6.00;99.90;;;;;;5075074;28;19931;-88
2022/09/25 04:07:49;;;;;;;;;;;6.00;99.90;;;;;;5074582;28;19912;-88
2022/09/25 04:10:14;;;;;;;;;;;5.90;99.90;;;;;;5074550;28;19908;-88
2022/09/25 04:12:42;;;;;;;;;;;6.00;99.90;;;;;;5074633;28;19970;-88
2022/09/25 04:15:08;;;;;;;;;;;6.00;99.90;;;;;;5075675;28;19917;-89
2022/09/25 04:17:34;;;;;;;;;;;6.00;99.90;;;;;;5074221;28;19950;-89
2022/09/25 04:20:00;;;;;;;;;;;6.10;99.90;;;;;;5074642;28;19908;-89
2022/09/25 04:22:25;;;;;;;;;;;6.10;99.90;;;;;;5074970;28;20425;-89
2022/09/25 04:24:52;;;;;;;;;;;6.20;99.90;;;;;;5074234;28;19912;-88
2022/09/25 04:27:21;;;;;;;;;;;6.20;99.90;;;;;;5074858;28;19939;-88
2022/09/25 04:29:46;;;;;;;;;;;6.20;99.90;;;;;;5074379;28;20004;-88
2022/09/25 04:34:57;;;;;;;;;;;6.30;99.90;;;;;;5075023;28;20407;-88
2022/09/25 04:37:25;;;;;;;;;;;6.30;99.90;;;;;;5073595;28;19908;-88
2022/09/25 04:39:57;;;;;;;;;;;6.30;99.90;;;;;;5074223;28;19919;-88
2022/09/25 04:42:23;;;;;;;;;;;6.30;99.90;;;;;;5073516;28;19913;-89
2022/09/25 04:44:52;;;;;;;;;;;6.30;99.90;;;;;;5073426;28;19909;-89
2022/09/25 04:47:19;;;;;;;;;;;6.30;99.90;;;;;;5059866;28;19908;-88
2022/09/25 04:49:44;;;;;;;;;;;6.40;99.90;;;;;;5054647;28;19913;-88
2022/09/25 04:52:14;;;;;;;;;;;6.40;99.90;;;;;;5053329;28;19947;-88
2022/09/25 04:54:40;;;;;;;;;;;6.40;99.90;;;;;;5054611;28;19920;-87
2022/09/25 04:57:06;;;;;;;;;;;6.50;99.90;;;;;;5054644;28;19917;-90
2022/09/25 04:59:31;;;;;;;;;;;6.50;99.90;;;;;;5053262;28;19909;-88
2022/09/25 05:01:57;;;;;;;;;;;6.60;99.90;;;;;;5054282;28;19909;-88
2022/09/25 05:04:22;;;;;;;;;;;6.60;99.90;;;;;;5053370;28;19919;-88
2022/09/25 05:06:49;;;;;;;;;;;6.50;99.90;;;;;;5053031;28;19912;-90
2022/09/25 05:09:15;;;;;;;;;;;6.40;99.90;;;;;;5053137;28;20012;-89
2022/09/25 05:11:40;;;;;;;;;;;6.40;99.90;;;;;;5053337;28;20020;-88
2022/09/25 05:14:06;;;;;;;;;;;6.40;99.90;;;;;;5052890;28;20364;-91
2022/09/25 05:16:31;;;;;;;;;;;6.30;99.90;;;;;;5053648;28;19916;-89
2022/09/25 05:18:57;;;;;;;;;;;6.30;99.90;;;;;;5052742;28;19972;-89
2022/09/25 05:21:23;;;;;;;;;;;6.30;99.90;;;;;;5053075;28;20370;-88
2022/09/25 05:23:49;;;;;;;;;;;6.20;99.90;;;;;;5054061;28;19924;-89
2022/09/25 05:26:14;;;;;;;;;;;6.20;99.90;;;;;;5053886;28;19913;-90
2022/09/25 05:28:40;;;;;;;;;;;6.20;99.90;;;;;;5052762;28;20271;-88
2022/09/25 05:31:06;;;;;;;;;;;6.20;99.90;;;;;;5052784;28;19921;-88
2022/09/25 05:33:32;;;;;;;;;;;6.20;99.90;;;;;;5052706;28;19975;-88
2022/09/25 05:36:01;;;;;;;;;;;6.30;99.90;;;;;;5053776;28;19909;-88
2022/09/25 05:38:27;;;;;;;;;;;6.30;99.90;;;;;;5052852;28;20431;-89
2022/09/25 05:40:54;;;;;;;;;;;6.30;99.90;;;;;;5052560;28;20009;-89
2022/09/25 05:43:20;;;;;;;;;;;6.30;99.90;;;;;;5052837;28;19912;-89
2022/09/25 05:45:52;;;;;;;;;;;6.30;99.90;;;;;;5053885;28;19913;-88
2022/09/25 05:48:18;;;;;;;;;;;6.30;99.90;;;;;;5052677;28;19909;-88
2022/09/25 05:50:43;;;;;;;;;;;6.30;99.90;;;;;;5053959;28;19916;-88
2022/09/25 05:53:09;;;;;;;;;;;6.30;99.90;;;;;;5056012;28;19948;-88
2022/09/25 05:55:34;;;;;;;;;;;6.40;99.90;;;;;;5056270;28;19909;-88
2022/09/25 05:58:01;;;;;;;;;;;6.40;99.90;;;;;;5057055;28;20384;-88
2022/09/25 06:00:27;;;;;;;;;;;6.40;99.90;;;;;;5056618;28;19966;-88
2022/09/25 06:02:52;;;;;;;;;;;6.40;99.90;;;;;;5056971;28;19995;-89
2022/09/25 06:05:21;;;;;;;;;;;6.40;99.90;;;;;;5056145;28;19916;-89
2022/09/25 06:07:51;;;;;;;;;;;6.40;99.90;;;;;;5056259;28;19912;-89
2022/09/25 06:10:16;;;;;;;;;;;6.40;99.90;;;;;;5056160;28;19913;-89
2022/09/25 06:12:41;;;;;;;;;;;6.30;99.90;;;;;;5057082;28;19927;-88
2022/09/25 06:15:07;;;;;;;;;;;6.30;99.90;;;;;;5056889;28;19909;-88
2022/09/25 06:17:33;;;;;;;;;;;6.30;99.90;;;;;;5055591;28;20277;-89
2022/09/25 06:19:58;;;;;;;;;;;6.30;99.90;;;;;;5057553;28;19962;-89
2022/09/25 06:22:24;;;;;;;;;;;6.30;99.90;;;;;;5055919;28;19913;-89
2022/09/25 06:24:49;;;;;;;;;;;6.30;99.90;;;;;;5055702;28;19913;-88
2022/09/25 06:27:15;;;;;;;;;;;6.30;99.90;;;;;;5055262;28;19909;-88
2022/09/25 06:29:40;;;;;;;;;;;6.30;99.90;;;;;;5055506;28;19913;-89
2022/09/25 06:32:06;;;;;;;;;;;6.30;99.90;;;;;;5055484;28;20423;-90
2022/09/25 06:34:31;;;;;;;;;;;6.30;99.90;;;;;;5055756;28;19955;-88
2022/09/25 06:36:58;;;;;;;;;;;6.30;99.90;;;;;;5056682;28;19948;-88
2022/09/25 06:39:24;;;;;;;;;;;6.30;99.90;;;;;;5056337;28;19916;-89
2022/09/25 06:41:51;;;;;;;;;;;6.30;99.90;;;;;;5056531;28;19912;-88
2022/09/25 06:44:16;;;;;;;;;;;6.30;99.90;;;;;;5056581;28;19913;-88
2022/09/25 06:46:43;;;;;;;;;;;6.30;99.90;;;;;;5058863;28;19967;-88
2022/09/25 06:49:10;;;;;;;;;;;6.30;99.90;;;;;;5060151;28;20369;-88
2022/09/25 06:51:36;;;;;;;;;;;6.20;99.90;;;;;;5062412;28;20015;-90
2022/09/25 06:54:02;;;;;;;;;;;6.20;99.90;;;;;;5058796;28;19972;-88
2022/09/25 06:56:28;;;;;;;;;;;6.20;99.90;;;;;;5058168;28;19916;-87
2022/09/25 06:58:53;;;;;;;;;;;6.20;99.90;;;;;;5054965;28;19913;-87
2022/09/25 07:01:19;;;;;;;;;;;6.30;99.90;;;;;;5055404;28;19908;-87
2022/09/25 07:03:44;;;;;;;;;;;6.30;99.90;;;;;;5054948;28;19991;-88
2022/09/25 07:06:16;;;;;;;;;;;6.30;99.90;;;;;;5055652;28;19909;-88
2022/09/25 07:08:46;;;;;;;;;;;6.40;99.90;;;;;;5054666;28;20046;-88
2022/09/25 07:11:33;;;;;;;;;;;6.40;99.90;;;;;;5055626;28;19924;-89
2022/09/25 07:13:58;;;;;;;;;;;6.50;99.90;;;;;;5052858;28;20370;-87
2022/09/25 07:16:25;;;;;;;;;;;6.40;99.90;;;;;;5054134;28;19913;-89
2022/09/25 07:18:56;;;;;;;;;;;6.40;99.90;;;;;;5054288;28;19997;-87
2022/09/25 07:21:23;;;;;;;;;;;6.50;99.90;;;;;;5054323;28;19931;-88
2022/09/25 07:23:49;;;;;;;;;;;6.50;99.90;;;;;;5054290;28;19908;-88
2022/09/25 07:26:15;;;;;;;;;;;6.50;99.90;;;;;;5053913;28;19912;-89
2022/09/25 07:28:41;;;;;;;;;;;6.60;99.90;;;;;;5054092;28;19916;-88
2022/09/25 07:31:20;;;;;;;;;;;6.60;99.90;;;;;;5053976;28;19967;-88
2022/09/25 07:33:46;;;;;;;;;;;6.70;99.90;;;;;;5054095;28;19920;-88
2022/09/25 07:36:12;;;;;;;;;;;6.70;99.90;;;;;;5054063;28;19909;-87
2022/09/25 07:38:38;;;;;;;;;;;6.80;99.90;;;;;;5055333;28;19948;-89
2022/09/25 07:41:05;;;;;;;;;;;6.90;99.90;;;;;;5055232;28;19967;-87
2022/09/25 07:43:31;;;;;;;;;;;6.90;99.90;;;;;;5053787;28;19935;-89
2022/09/25 07:45:57;;;;;;;;;;;6.90;99.90;;;;;;5054366;28;19913;-89
2022/09/25 07:48:23;;;;;;;;;;;7.00;99.90;;;;;;5055591;28;19909;-88
2022/09/25 07:50:49;;;;;;;;;;;7.10;99.90;;;;;;5054454;28;19917;-89
2022/09/25 07:53:17;;;;;;;;;;;7.10;99.90;;;;;;5053843;28;19924;-90
2022/09/25 07:55:46;;;;;;;;;;;7.10;99.90;;;;;;5048405;28;19912;-88
2022/09/25 07:58:12;;;;;;;;;;;7.20;99.90;;;;;;5054005;28;20028;-89
2022/09/25 08:00:39;;;;;;;;;;;7.30;99.90;;;;;;5067041;28;19974;-89
2022/09/25 08:03:05;;;;;;;;;;;7.40;99.90;;;;;;5074555;28;19909;-90
2022/09/25 08:05:31;;;;;;;;;;;7.60;99.90;;;;;;5074480;28;19981;-90
2022/09/25 08:07:56;;;;;;;;;;;7.60;99.90;;;;;;5073235;28;20373;-89
2022/09/25 08:10:22;;;;;;;;;;;7.70;99.90;;;;;;5074722;28;19916;-90
2022/09/25 08:12:48;;;;;;;;;;;7.80;99.90;;;;;;5072229;28;19920;-89
2022/09/25 08:15:13;;;;;;;;;;;7.90;99.90;;;;;;5074542;28;19919;-88
2022/09/25 08:17:39;;;;;;;;;;;7.90;99.90;;;;;;5073828;28;19912;-88
2022/09/25 08:20:06;;;;;;;;;;;8.00;99.90;;;;;;5073318;28;19917;-89
2022/09/25 08:22:32;;;;;;;;;;;8.10;99.90;;;;;;5073506;28;20285;-88
2022/09/25 08:25:01;;;;;;;;;;;8.10;99.90;;;;;;5073226;28;19913;-90
2022/09/25 08:27:26;;;;;;;;;;;8.20;99.90;;;;;;5072974;28;19916;-87
2022/09/25 08:29:52;;;;;;;;;;;8.30;99.90;;;;;;5072493;28;19909;-88
2022/09/25 08:32:17;;;;;;;;;;;8.40;99.90;;;;;;5072972;28;20022;-87
2022/09/25 08:34:45;;;;;;;;;;;8.40;99.90;;;;;;5072608;28;20452;-88
2022/09/25 08:37:10;;;;;;;;;;;8.50;99.90;;;;;;5074017;28;19908;-88
2022/09/25 08:39:36;;;;;;;;;;;8.60;99.90;;;;;;5074976;28;19999;-87
2022/09/25 08:42:01;;;;;;;;;;;8.70;99.90;;;;;;5072887;28;19948;-88
2022/09/25 08:44:38;;;;;;;;;;;8.80;99.90;;;;;;5075630;28;19909;-87
2022/09/25 08:50:09;;;;;;;;;;;9.00;99.90;;;;;;5090079;28;19920;-88
2022/09/25 08:52:35;;;;;;;;;;;9.20;99.90;;;;;;5089539;28;19971;-88
2022/09/25 08:55:01;;;;;;;;;;;9.30;99.90;;;;;;5085770;28;19924;-88
2022/09/25 08:57:29;;;;;;;;;;;9.50;99.90;;;;;;5072643;28;19909;-87
2022/09/25 08:59:58;;;;;;;;;;;9.60;99.90;;;;;;5073853;28;19924;-89
2022/09/25 09:02:32;;;;;;;;;;;9.70;99.90;;;;;;5070922;28;19916;-89
2022/09/25 09:05:00;;;;;;;;;;;9.80;99.90;;;;;;5072799;28;20282;-90
2022/09/25 09:07:34;;;;;;;;;;;9.90;99.90;;;;;;5069638;28;19966;-88
2022/09/25 09:10:06;;;;;;;;;;;10.10;99.90;;;;;;5070332;28;19913;-88
2022/09/25 09:12:42;;;;;;;;;;;10.20;99.90;;;;;;5070758;28;19939;-88
2022/09/25 09:15:28;;;;;;;;;;;10.30;99.90;;;;;;5070588;28;19952;-89
2022/09/25 09:17:54;;;;;;;;;;;10.60;99.90;;;;;;5070711;28;19915;-89
2022/09/25 09:20:26;;;;;;;;;;;10.80;99.90;;;;;;5070555;28;19913;-88
2022/09/25 09:22:52;;;;;;;;;;;11.00;99.90;;;;;;5070597;28;19938;-88
2022/09/25 09:25:29;;;;;;;;;;;11.20;99.90;;;;;;5073010;28;20372;-88
2022/09/25 09:28:14;;;;;;;;;;;11.40;99.90;;;;;;5073084;28;19916;-88
2022/09/25 09:31:03;;;;;;;;;;;11.70;99.90;;;;;;5074290;28;19912;-89
2022/09/25 09:33:34;;;;;;;;;;;11.90;99.90;;;;;;5065103;28;19919;-88
2022/09/25 09:36:00;;;;;;;;;;;12.10;99.90;;;;;;5075678;28;19908;-88
2022/09/25 09:38:41;;;;;;;;;;;12.30;99.90;;;;;;5075951;28;19920;-88
2022/09/25 09:41:07;;;;;;;;;;;12.50;99.90;;;;;;5074908;28;19931;-88
2022/09/25 09:43:33;;;;;;;;;;;12.70;99.90;;;;;;5072335;28;19996;-88
2022/09/25 09:45:59;;;;;;;;;;;12.90;99.90;;;;;;5063406;28;19923;-88
2022/09/25 09:48:25;;;;;;;;;;;13.10;99.90;;;;;;5063130;28;19919;-88
2022/09/25 09:50:53;;;;;;;;;;;13.20;99.90;;;;;;5070340;28;19920;-88
2022/09/25 09:53:34;;;;;;;;;;;13.40;99.90;;;;;;5074738;28;19944;-89
2022/09/25 09:56:03;;;;;;;;;;;13.50;99.90;;;;;;5074755;28;19912;-88
2022/09/25 09:58:43;;;;;;;;;;;13.70;99.90;;;;;;5074656;28;20384;-88
2022/09/25 10:01:12;;;;;;;;;;;13.80;99.90;;;;;;5072754;28;19912;-87
2022/09/25 10:03:38;;;;;;;;;;;13.90;99.90;;;;;;5074761;28;19913;-87
2022/09/25 10:06:07;;;;;;;;;;;14.10;99.90;;;;;;5076046;28;19909;-88
2022/09/25 10:08:33;;;;;;;;;;;14.20;99.90;;;;;;5075609;28;20274;-88
2022/09/25 10:10:59;;;;;;;;;;;14.30;99.90;;;;;;5073873;28;19916;-88
2022/09/25 10:13:29;;;;;;;;;;;14.50;99.90;;;;;;5074100;28;19916;-89
2022/09/25 10:15:59;;;;;;;;;;;14.50;99.90;;;;;;5073643;28;19908;-88
2022/09/25 10:18:27;;;;;;;;;;;14.60;99.90;;;;;;5073412;28;19912;-88
2022/09/25 10:20:59;;;;;;;;;;;14.60;99.90;;;;;;5073188;28;19912;-88
2022/09/25 10:23:24;;;;;;;;;;;14.60;99.90;;;;;;5071298;28;20382;-87
2022/09/25 10:25:50;;;;;;;;;;;14.50;99.90;;;;;;5074738;28;19916;-88
2022/09/25 10:28:22;;;;;;;;;;;14.50;99.90;;;;;;5073676;28;19916;-89
2022/09/25 10:30:48;;;;;;;;;;;14.50;99.90;;;;;;5073832;28;19924;-88
2022/09/25 10:33:18;;;;;;;;;;;14.40;99.90;;;;;;5074144;28;19913;-88
2022/09/25 10:35:44;;;;;;;;;;;14.40;99.90;;;;;;5073308;28;20038;-88
2022/09/25 10:38:29;;;;;;;;;;;14.40;99.90;;;;;;5061152;28;19913;-89
2022/09/25 10:41:00;;;;;;;;;;;14.30;99.90;;;;;;5067145;28;19939;-88
2022/09/25 10:43:25;;;;;;;;;;;14.30;99.90;;;;;;5071635;28;19909;-89
2022/09/25 10:46:10;;;;;;;;;;;14.30;99.90;;;;;;5062862;28;19917;-87
2022/09/25 10:51:22;;;;;;;;;;;14.20;99.90;;;;;;5065964;28;19927;-89
2022/09/25 10:53:55;;;;;;;;;;;14.20;99.90;;;;;;5079986;28;19966;-91
2022/09/25 10:56:26;;;;;;;;;;;14.20;99.90;;;;;;5075970;28;19914;-89
2022/09/25 10:58:57;;;;;;;;;;;14.20;99.90;;;;;;5075503;28;19909;-90
2022/09/25 11:01:34;;;;;;;;;;;14.20;99.90;;;;;;5076103;28;19940;-88
2022/09/25 11:04:02;;;;;;;;;;;14.20;99.90;;;;;;5071387;28;19999;-90
2022/09/25 11:06:29;;;;;;;;;;;14.20;99.90;;;;;;5071001;28;19920;-89
2022/09/25 11:09:13;;;;;;;;;;;14.20;99.90;;;;;;5063352;28;19913;-91
2022/09/25 11:11:39;;;;;;;;;;;14.30;99.90;;;;;;5065500;28;19924;-89
2022/09/25 11:14:21;;;;;;;;;;;14.30;99.90;;;;;;5068675;28;19913;-89
2022/09/25 11:16:52;;;;;;;;;;;14.30;99.90;;;;;;5072459;28;19917;-89
2022/09/25 11:19:21;;;;;;;;;;;14.30;99.60;;;;;;5065572;28;19912;-87
2022/09/25 11:21:56;;;;;;;;;;;14.20;99.30;;;;;;5074374;28;19912;-88
2022/09/25 11:24:36;;;;;;;;;;;14.20;99.40;;;;;;5056032;28;19913;-89
2022/09/25 11:27:23;;;;;;;;;;;14.30;99.50;;;;;;5070873;28;19908;-89
2022/09/25 11:30:01;;;;;;;;;;;14.40;99.30;;;;;;5065743;28;19920;-88
2022/09/25 11:32:50;;;;;;;;;;;14.50;99.20;;;;;;5064660;28;20359;-88
2022/09/25 11:35:24;;;;;;;;;;;14.50;98.80;;;;;;5046552;28;20358;-87
2022/09/25 11:37:55;;;;;;;;;;;14.50;98.40;;;;;;5072957;28;19952;-90
2022/09/25 11:43:24;;;;;;;;;;;14.50;97.90;;;;;;5063505;28;19915;-88
2022/09/25 11:45:52;;;;;;;;;;;14.50;97.70;;;;;;5064644;28;19971;-89
2022/09/25 11:48:26;;;;;;;;;;;14.50;97.60;;;;;;5067234;28;19936;-91
2022/09/25 11:51:16;;;;;;;;;;;14.50;97.50;;;;;;5065413;28;19916;-94
2022/09/25 11:54:03;;;;;;;;;;;14.40;97.20;;;;;;5068510;28;20366;-91
2022/09/25 11:56:29;;;;;;;;;;;14.20;97.30;;;;;;5067128;28;19916;-93
2022/09/25 11:59:00;;;;;;;;;;;14.20;97.50;;;;;;5068434;28;19916;-93
2022/09/25 12:01:35;;;;;;;;;;;14.10;97.20;;;;;;5070112;28;19912;-91
2022/09/25 12:04:38;;;;;;;;;;;14.00;97.50;;;;;;5073364;28;19912;-92
2022/09/25 12:07:23;;;;;;;;;;;14.00;97.70;;;;;;5022867;28;20378;-93
2022/09/25 12:10:02;;;;;;;;;;;13.90;97.80;;;;;;5061914;28;20007;-93
2022/09/25 12:12:46;;;;;;;;;;;13.90;98.00;;;;;;5074202;28;19916;-93
2022/09/25 12:15:16;;;;;;;;;;;13.80;98.20;;;;;;5060363;28;19929;-93
2022/09/25 12:17:43;;;;;;;;;;;13.80;98.30;;;;;;5074254;28;19959;-94
2022/09/25 12:20:41;;;;;;;;;;;13.80;98.50;;;;;;5067453;28;19948;-94
2022/09/25 12:23:25;;;;;;;;;;;13.80;98.70;;;;;;5035100;28;19912;-94
2022/09/25 12:26:05;;;;;;;;;;;14.00;98.80;;;;;;5061659;28;19913;-93
2022/09/25 12:28:38;;;;;;;;;;;14.10;98.80;;;;;;5053260;28;19916;-93
2022/09/25 12:31:31;;;;;;;;;;;14.20;98.70;;;;;;5067859;28;19923;-92
2022/09/25 12:34:16;;;;;;;;;;;14.30;98.40;;;;;;5068956;28;19930;-95
2022/09/25 12:36:44;;;;;;;;;;;14.50;98.30;;;;;;5072692;28;19966;-94
2022/09/25 12:39:09;;;;;;;;;;;14.70;98.10;;;;;;5053699;28;19962;-94
2022/09/25 12:41:40;;;;;;;;;;;14.80;97.90;;;;;;5070889;28;20003;-95
2022/09/25 12:44:19;;;;;;;;;;;14.80;97.60;;;;;;5074652;28;19909;-93
2022/09/25 12:46:55;;;;;;;;;;;14.80;97.50;;;;;;5062312;28;20038;-95
2022/09/25 12:49:39;;;;;;;;;;;14.70;97.40;;;;;;5074576;28;19915;-94
2022/09/25 12:52:10;;;;;;;;;;;14.60;97.50;;;;;;5076184;28;19916;-92
2022/09/25 12:54:55;;;;;;;;;;;14.60;97.70;;;;;;5076291;28;19942;-95
2022/09/25 12:57:33;;;;;;;;;;;14.50;97.70;;;;;;5076185;28;19999;-96
2022/09/25 13:00:05;;;;;;;;;;;14.40;97.80;;;;;;5086326;28;19959;-95
2022/09/25 13:02:47;;;;;;;;;;;14.30;98.10;;;;;;5086100;28;20003;-95
2022/09/25 13:05:32;;;;;;;;;;;14.30;98.30;;;;;;5065388;28;19912;-94
2022/09/25 13:07:58;;;;;;;;;;;14.20;98.30;;;;;;5064801;28;19909;-95
2022/09/25 13:10:32;;;;;;;;;;;14.20;98.30;;;;;;5078916;28;19912;-93
2022/09/25 13:13:00;;;;;;;;;;;14.10;98.40;;;;;;5078912;28;19925;-95
2022/09/25 13:17:58;;;;;;;;;;;14.10;98.50;;;;;;5028674;22;19925;-95
2022/09/25 13:20:23;;;;;;;;;;;14.00;98.50;;;;;;5005537;28;20045;-94
2022/09/25 13:22:49;;;;;;;;;;;14.00;98.60;;;;;;5006874;28;20356;-94
2022/09/25 13:25:15;;;;;;;;;;;14.10;98.60;;;;;;5017183;28;19906;-95
2022/09/25 13:27:45;;;;;;;;;;;14.40;98.60;;;;;;5018968;28;19916;-94
2022/09/25 13:30:21;;;;;;;;;;;14.70;98.30;;;;;;5021090;28;19914;-95
2022/09/25 13:32:47;;;;;;;;;;;14.90;97.70;;;;;;5019765;28;19910;-93
2022/09/25 13:35:18;;;;;;;;;;;15.00;97.10;;;;;;5018284;28;19917;-92
2022/09/25 13:37:44;;;;;;;;;;;15.10;96.80;;;;;;5009232;28;20358;-93
2022/09/25 13:40:41;;;;;;;;;;;15.10;96.50;;;;;;4998990;28;19910;-93
2022/09/25 13:43:17;;;;;;;;;;;15.00;96.40;;;;;;4998194;28;19917;-93
2022/09/25 13:45:44;;;;;;;;;;;14.90;96.40;;;;;;4998386;28;19989;-92
2022/09/25 13:48:36;;;;;;;;;;;14.80;96.70;;;;;;4999134;28;19949;-94
2022/09/25 13:51:21;;;;;;;;;;;14.70;96.50;;;;;;5013652;28;19925;-93
2022/09/25 13:53:52;;;;;;;;;;;14.70;96.50;;;;;;4997721;28;19925;-92
2022/09/25 13:56:22;;;;;;;;;;;14.70;96.70;;;;;;4998882;28;19916;-93
2022/09/25 13:59:00;;;;;;;;;;;14.80;96.60;;;;;;4998704;28;19916;-93
2022/09/25 14:01:54;;;;;;;;;;;14.80;96.30;;;;;;4997587;28;20271;-93
2022/09/25 14:04:43;;;;;;;;;;;14.70;95.90;;;;;;4997302;28;19917;-94
2022/09/25 14:07:38;;;;;;;;;;;14.70;95.70;;;;;;4999455;28;19910;-95
2022/09/25 14:10:07;;;;;;;;;;;14.60;95.50;;;;;;4997451;28;20515;-93
2022/09/25 14:12:59;;;;;;;;;;;14.60;95.60;;;;;;4997726;28;19918;-94
2022/09/25 14:15:37;;;;;;;;;;;14.50;95.60;;;;;;4990825;28;19917;-92
2022/09/25 14:18:19;;;;;;;;;;;14.40;95.90;;;;;;4996418;28;19958;-93
2022/09/25 14:20:49;;;;;;;;;;;14.30;96.00;;;;;;4981457;28;19918;-93
2022/09/25 14:23:15;;;;;;;;;;;14.30;96.30;;;;;;4997737;28;19965;-95
2022/09/25 14:25:43;;;;;;;;;;;14.20;96.50;;;;;;4998572;28;19914;-95
2022/09/25 14:28:18;;;;;;;;;;;14.20;96.80;;;;;;4997466;28;19909;-95
2022/09/25 14:31:14;;;;;;;;;;;14.10;97.00;;;;;;4998537;28;19917;-93
2022/09/25 14:34:19;;;;;;;;;;;14.00;97.20;;;;;;4995973;28;19914;-94
2022/09/25 14:36:48;;;;;;;;;;;14.00;97.50;;;;;;4986284;28;19941;-94
2022/09/25 14:39:32;;;;;;;;;;;14.00;97.80;;;;;;5008352;28;19957;-94
2022/09/25 14:42:26;;;;;;;;;;;14.00;98.00;;;;;;5009006;28;19918;-95
2022/09/25 14:45:04;;;;;;;;;;;14.10;98.10;;;;;;5005490;28;19914;-93
2022/09/25 14:47:56;;;;;;;;;;;14.20;98.10;;;;;;4987705;28;19973;-94
2022/09/25 14:50:44;;;;;;;;;;;14.20;98.20;;;;;;4985070;28;19937;-93
2022/09/25 14:53:15;;;;;;;;;;;14.20;98.20;;;;;;4981631;28;19921;-94
2022/09/25 14:55:45;;;;;;;;;;;14.20;98.00;;;;;;4996102;28;19910;-94
2022/09/25 14:58:34;;;;;;;;;;;14.10;98.10;;;;;;4998243;28;19910;-95
2022/09/25 15:01:22;;;;;;;;;;;14.20;98.20;;;;;;4995503;28;19913;-93
2022/09/25 15:03:48;;;;;;;;;;;14.20;98.20;;;;;;4998495;28;19910;-95